Time;durP1;ratioP1;P1;durP2;ratioP2;P2;SDS_P1;SDS_P2;PMS_P1;PMS_P2;Temp;Humidity;BMP_temperature;BMP_pressure;BME280_temperature;BME280_humidity;BME280_pressure;Samples;Min_cycle;Max_cycle;Signal;HPM_P1;HPM_P2
2021/03/14 00:00:28;;;;;;;1999.90;999.90;;;;;;;;;;5065790;28;20053;-78
2021/03/14 00:02:54;;;;;;;1999.90;999.90;;;;;;;;;;5068008;28;20119;-78
2021/03/14 00:05:20;;;;;;;1999.90;999.90;;;;;;;;;;5065900;28;20619;-78
2021/03/14 00:07:45;;;;;;;1999.90;999.90;;;;;;;;;;5065584;28;20032;-77
2021/03/14 00:10:11;;;;;;;1999.90;999.90;;;;;;;;;;5066424;28;20055;-77
2021/03/14 00:12:37;;;;;;;1999.90;999.90;;;;;;;;;;5048384;28;20035;-77
2021/03/14 00:15:02;;;;;;;1999.90;999.90;;;;;;;;;;5054119;28;20021;-77
2021/03/14 00:17:28;;;;;;;1999.90;999.90;;;;;;;;;;5055895;28;20036;-78
2021/03/14 00:19:53;;;;;;;1999.90;999.90;;;;;;;;;;5063373;28;20523;-77
2021/03/14 00:22:19;;;;;;;1999.90;999.90;;;;;;;;;;5061047;28;20082;-77
2021/03/14 00:24:44;;;;;;;1999.90;999.90;;;;;;;;;;5075410;28;20422;-77
2021/03/14 00:27:10;;;;;;;1999.90;999.90;;;;;;;;;;5054850;28;20067;-77
2021/03/14 00:29:35;;;;;;;1999.90;999.90;;;;;;;;;;5052737;28;20016;-78
2021/03/14 00:32:02;;;;;;;1999.90;999.90;;;;;;;;;;5052804;28;20374;-77
2021/03/14 00:34:28;;;;;;;1999.90;999.90;;;;;;;;;;5058091;28;20025;-77
2021/03/14 00:36:53;;;;;;;1999.90;999.90;;;;;;;;;;5062669;28;20043;-78
2021/03/14 00:39:19;;;;;;;1999.90;999.90;;;;;;;;;;5066014;28;20143;-77
2021/03/14 00:41:44;;;;;;;1999.90;999.90;;;;;;;;;;5067021;28;20043;-78
2021/03/14 00:44:10;;;;;;;1999.90;999.90;;;;;;;;;;5059649;28;20029;-78
2021/03/14 00:46:35;;;;;;;1999.90;999.90;;;;;;;;;;5065769;28;20083;-77
2021/03/14 00:49:00;;;;;;;1999.90;999.90;;;;;;;;;;5066356;28;20025;-78
2021/03/14 00:51:26;;;;;;;1999.90;999.90;;;;;;;;;;5064880;28;20029;-78
2021/03/14 00:53:53;;;;;;;1999.90;999.90;;;;;;;;;;5066455;28;20020;-77
2021/03/14 00:56:24;;;;;;;1999.90;999.90;;;;;;;;;;5060173;28;20037;-78
2021/03/14 00:58:50;;;;;;;1999.90;999.90;;;;;;;;;;5065657;28;20802;-78
2021/03/14 01:01:17;;;;;;;1999.90;999.90;;;;;;;;;;5064561;28;20056;-78
2021/03/14 01:03:43;;;;;;;1999.90;999.90;;;;;;;;;;5065576;28;20075;-78
2021/03/14 01:06:09;;;;;;;1999.90;999.90;;;;;;;;;;5065600;28;20102;-78
2021/03/14 01:08:36;;;;;;;1999.90;999.90;;;;;;;;;;5064569;28;20481;-78
2021/03/14 01:11:02;;;;;;;1999.90;999.90;;;;;;;;;;5064903;28;20036;-78
2021/03/14 01:13:50;;;;;;;1999.90;999.90;;;;;;;;;;5061563;28;20049;-77
2021/03/14 01:16:17;;;;;;;1999.90;999.90;;;;;;;;;;5062562;28;20055;-78
2021/03/14 01:18:43;;;;;;;1999.90;999.90;;;;;;;;;;5066285;28;20048;-78
2021/03/14 01:21:08;;;;;;;275.85;250.77;;;;;;;;;;5064935;28;20052;-78
2021/03/14 01:23:34;;;;;;;1999.90;999.90;;;;;;;;;;5067680;28;20017;-78
2021/03/14 01:25:59;;;;;;;1999.90;999.90;;;;;;;;;;5069256;28;20036;-78
2021/03/14 01:28:25;;;;;;;1999.90;999.90;;;;;;;;;;5063963;28;20024;-78
2021/03/14 01:30:50;;;;;;;1999.90;999.90;;;;;;;;;;5066157;28;20082;-77
2021/03/14 01:33:16;;;;;;;1999.90;999.90;;;;;;;;;;5066193;28;20384;-78
2021/03/14 01:35:41;;;;;;;1999.90;999.90;;;;;;;;;;5065145;28;20028;-78
2021/03/14 01:38:07;;;;;;;1999.90;999.90;;;;;;;;;;5065428;28;20105;-78
2021/03/14 01:40:32;;;;;;;1999.90;999.90;;;;;;;;;;5063389;28;20036;-78
2021/03/14 01:42:58;;;;;;;1999.90;999.90;;;;;;;;;;5062114;28;20021;-78
2021/03/14 01:45:24;;;;;;;1999.90;999.90;;;;;;;;;;5059346;28;20025;-78
2021/03/14 01:47:51;;;;;;;1999.90;999.90;;;;;;;;;;5062311;28;20523;-78
2021/03/14 01:50:17;;;;;;;1999.90;999.90;;;;;;;;;;5054673;28;20647;-77
2021/03/14 01:52:44;;;;;;;1999.90;999.90;;;;;;;;;;5052506;28;20503;-77
2021/03/14 01:55:10;;;;;;;1999.90;999.90;;;;;;;;;;5052729;28;20036;-77
2021/03/14 01:57:36;;;;;;;1999.90;999.90;;;;;;;;;;5064743;28;20318;-78
2021/03/14 02:00:03;;;;;;;1999.90;999.90;;;;;;;;;;5064500;28;20041;-78
2021/03/14 02:02:37;;;;;;;;;;;;;;;;;;5057865;28;20036;-78
2021/03/14 02:05:04;;;;;;;1999.90;999.90;;;;;;;;;;5056956;28;19920;-77
2021/03/14 02:07:29;;;;;;;1999.90;999.90;;;;;;;;;;5051752;28;20036;-78
2021/03/14 02:09:56;;;;;;;1999.90;999.90;;;;;;;;;;5059673;28;20430;-78
2021/03/14 02:12:22;;;;;;;1999.90;999.90;;;;;;;;;;5057337;28;20017;-78
2021/03/14 02:14:51;;;;;;;1999.90;999.90;;;;;;;;;;5061265;28;20056;-78
2021/03/14 02:17:19;;;;;;;1999.90;999.90;;;;;;;;;;5063798;28;20472;-78
2021/03/14 02:19:57;;;;;;;1999.90;999.90;;;;;;;;;;5064469;28;20409;-78
2021/03/14 02:22:23;;;;;;;1999.90;999.90;;;;;;;;;;5058585;28;20052;-78
2021/03/14 02:24:54;;;;;;;1999.90;999.90;;;;;;;;;;5060048;28;20025;-78
2021/03/14 02:27:20;;;;;;;1999.90;999.90;;;;;;;;;;5063591;28;20036;-78
2021/03/14 02:29:45;;;;;;;1999.90;999.90;;;;;;;;;;5065371;28;20020;-77
2021/03/14 02:32:12;;;;;;;1999.90;999.90;;;;;;;;;;5063936;28;20025;-78
2021/03/14 02:34:43;;;;;;;1999.90;999.90;;;;;;;;;;5068037;28;20036;-78
2021/03/14 02:37:09;;;;;;;1999.90;999.90;;;;;;;;;;5059476;28;20032;-78
2021/03/14 02:39:35;;;;;;;1999.90;999.90;;;;;;;;;;5064476;28;20028;-78
2021/03/14 02:42:01;;;;;;;1999.90;999.90;;;;;;;;;;5065001;28;20040;-78
2021/03/14 02:44:28;;;;;;;1999.90;999.90;;;;;;;;;;5061805;28;20455;-78
2021/03/14 02:46:53;;;;;;;1999.90;999.90;;;;;;;;;;5065038;28;20032;-78
2021/03/14 02:49:20;;;;;;;1999.90;999.90;;;;;;;;;;5065034;28;20024;-78
2021/03/14 02:51:46;;;;;;;1999.90;999.90;;;;;;;;;;5065256;28;20055;-78
2021/03/14 02:54:12;;;;;;;1999.90;999.90;;;;;;;;;;5062548;28;20024;-78
2021/03/14 02:56:38;;;;;;;1999.90;999.90;;;;;;;;;;5064830;28;20110;-78
2021/03/14 02:59:04;;;;;;;1999.90;999.90;;;;;;;;;;5060750;28;20029;-78
2021/03/14 03:01:30;;;;;;;1999.90;999.90;;;;;;;;;;5063679;28;20538;-78
2021/03/14 03:03:57;;;;;;;1999.90;999.90;;;;;;;;;;5067262;28;20075;-78
2021/03/14 03:06:23;;;;;;;1999.90;999.90;;;;;;;;;;5064288;28;20045;-78
2021/03/14 03:08:48;;;;;;;1999.90;999.90;;;;;;;;;;5049954;28;20032;-78
2021/03/14 03:11:15;;;;;;;1999.90;999.90;;;;;;;;;;5068109;28;20032;-78
2021/03/14 03:13:41;;;;;;;1999.90;999.90;;;;;;;;;;5062871;28;20440;-78
2021/03/14 03:16:07;;;;;;;1999.90;999.90;;;;;;;;;;5067842;28;20056;-78
2021/03/14 03:18:33;;;;;;;1999.90;999.90;;;;;;;;;;5065910;28;20017;-78
2021/03/14 03:20:59;;;;;;;1999.90;999.90;;;;;;;;;;5068204;28;20048;-78
2021/03/14 03:23:25;;;;;;;1999.90;999.90;;;;;;;;;;5066716;28;20032;-78
2021/03/14 03:25:50;;;;;;;1999.90;999.90;;;;;;;;;;5069692;28;20041;-78
2021/03/14 03:28:15;;;;;;;1999.90;999.90;;;;;;;;;;5066418;28;20056;-78
2021/03/14 03:30:41;;;;;;;1999.90;999.90;;;;;;;;;;5068167;28;20032;-78
2021/03/14 03:33:07;;;;;;;1999.90;999.90;;;;;;;;;;5067595;28;20104;-78
2021/03/14 03:35:33;;;;;;;1999.90;999.90;;;;;;;;;;5066804;28;20432;-77
2021/03/14 03:37:58;;;;;;;1999.90;999.90;;;;;;;;;;5068070;28;20434;-78
2021/03/14 03:40:26;;;;;;;1999.90;999.90;;;;;;;;;;5065565;28;20032;-77
2021/03/14 03:42:54;;;;;;;1999.90;999.90;;;;;;;;;;5063316;28;20016;-78
2021/03/14 03:45:21;;;;;;;1999.90;999.90;;;;;;;;;;5066398;28;20043;-77
2021/03/14 03:47:46;;;;;;;1999.90;999.90;;;;;;;;;;5068535;28;20029;-78
2021/03/14 03:50:13;;;;;;;1999.90;999.90;;;;;;;;;;5066724;28;20021;-78
2021/03/14 03:52:40;;;;;;;1999.90;999.90;;;;;;;;;;5067375;28;20063;-78
2021/03/14 03:55:07;;;;;;;1999.90;999.90;;;;;;;;;;5063044;28;20036;-78
2021/03/14 03:57:33;;;;;;;1999.90;999.90;;;;;;;;;;5059882;28;20028;-77
2021/03/14 03:59:59;;;;;;;1999.90;999.90;;;;;;;;;;5063798;28;20032;-78
2021/03/14 04:02:24;;;;;;;1999.90;999.90;;;;;;;;;;5056190;28;20120;-78
2021/03/14 04:04:50;;;;;;;1999.90;999.90;;;;;;;;;;5062720;28;20056;-77
2021/03/14 04:07:15;;;;;;;1999.90;999.90;;;;;;;;;;5065453;28;20036;-78
2021/03/14 04:09:43;;;;;;;1999.90;999.90;;;;;;;;;;5063658;28;20032;-78
2021/03/14 04:12:08;;;;;;;1999.90;999.90;;;;;;;;;;5064599;28;20379;-77
2021/03/14 04:14:34;;;;;;;1999.90;999.90;;;;;;;;;;5066719;28;20032;-78
2021/03/14 04:17:01;;;;;;;1999.90;999.90;;;;;;;;;;5067548;28;20021;-78
2021/03/14 04:19:28;;;;;;;1999.90;999.90;;;;;;;;;;5065429;28;20032;-77
2021/03/14 04:21:54;;;;;;;1999.90;999.90;;;;;;;;;;5058307;28;20033;-77
2021/03/14 04:24:20;;;;;;;1999.90;999.90;;;;;;;;;;5065629;28;20091;-78
2021/03/14 04:26:46;;;;;;;1999.90;999.90;;;;;;;;;;5068173;28;20072;-78
2021/03/14 04:29:12;;;;;;;1999.90;999.90;;;;;;;;;;5060931;28;20029;-77
2021/03/14 04:31:43;;;;;;;1999.90;999.90;;;;;;;;;;5066790;28;20055;-77
2021/03/14 04:34:09;;;;;;;1999.90;999.90;;;;;;;;;;5060634;28;20380;-77
2021/03/14 04:36:35;;;;;;;1999.90;999.90;;;;;;;;;;5051787;28;20021;-77
2021/03/14 04:39:00;;;;;;;1999.90;999.90;;;;;;;;;;5058268;28;20025;-77
2021/03/14 04:41:26;;;;;;;1999.90;999.90;;;;;;;;;;5057077;28;20044;-77
2021/03/14 04:43:52;;;;;;;1999.90;999.90;;;;;;;;;;5051387;28;20028;-77
2021/03/14 04:46:17;;;;;;;1999.90;999.90;;;;;;;;;;5051339;28;20438;-77
2021/03/14 04:48:43;;;;;;;1999.90;999.90;;;;;;;;;;5051488;28;20104;-77
2021/03/14 04:51:08;;;;;;;1999.90;999.90;;;;;;;;;;5051888;28;20055;-77
2021/03/14 04:53:34;;;;;;;1999.90;999.90;;;;;;;;;;5053375;28;20457;-77
2021/03/14 04:56:00;;;;;;;1999.90;999.90;;;;;;;;;;5055562;28;20028;-77
2021/03/14 04:58:26;;;;;;;1999.90;999.90;;;;;;;;;;5057150;28;20032;-76
2021/03/14 05:00:52;;;;;;;1999.90;999.90;;;;;;;;;;5056977;28;20033;-76
2021/03/14 05:03:20;;;;;;;1999.90;999.90;;;;;;;;;;5057068;28;20035;-76
2021/03/14 05:05:45;;;;;;;1999.90;999.90;;;;;;;;;;5054910;28;20428;-76
2021/03/14 05:08:12;;;;;;;1999.90;999.90;;;;;;;;;;5059136;28;20055;-76
2021/03/14 05:10:38;;;;;;;1999.90;999.90;;;;;;;;;;5061235;28;20031;-76
2021/03/14 05:13:03;;;;;;;1999.90;999.90;;;;;;;;;;5056813;28;20033;-77
2021/03/14 05:15:29;;;;;;;1999.90;999.90;;;;;;;;;;5053043;28;20023;-77
2021/03/14 05:17:55;;;;;;;1999.90;999.90;;;;;;;;;;5051857;28;20437;-77
2021/03/14 05:20:21;;;;;;;1999.90;999.90;;;;;;;;;;5053884;28;20025;-77
2021/03/14 05:22:47;;;;;;;1999.90;999.90;;;;;;;;;;5052788;28;20067;-77
2021/03/14 05:25:17;;;;;;;1999.90;999.90;;;;;;;;;;5057056;28;20424;-77
2021/03/14 05:27:49;;;;;;;1999.90;999.90;;;;;;;;;;5054023;28;20028;-77
2021/03/14 05:30:15;;;;;;;1999.90;999.90;;;;;;;;;;5058179;28;20039;-77
2021/03/14 05:32:41;;;;;;;1999.90;999.90;;;;;;;;;;5065710;28;20035;-77
2021/03/14 05:35:06;;;;;;;1999.90;999.90;;;;;;;;;;5064354;28;20028;-77
2021/03/14 05:37:32;;;;;;;1999.90;999.90;;;;;;;;;;5064548;28;20056;-77
2021/03/14 05:39:57;;;;;;;1999.90;999.90;;;;;;;;;;5068988;28;20027;-77
2021/03/14 05:42:22;;;;;;;1999.90;999.90;;;;;;;;;;5064154;28;20036;-77
2021/03/14 05:44:49;;;;;;;1999.90;999.90;;;;;;;;;;5065819;28;20059;-77
2021/03/14 05:47:14;;;;;;;1999.90;999.90;;;;;;;;;;5063774;28;20585;-77
2021/03/14 05:49:39;;;;;;;1999.90;999.90;;;;;;;;;;5059707;28;20032;-77
2021/03/14 05:52:05;;;;;;;1999.90;999.90;;;;;;;;;;5064976;28;20089;-77
2021/03/14 05:54:32;;;;;;;1999.90;999.90;;;;;;;;;;5064162;28;20029;-77
2021/03/14 05:57:00;;;;;;;1999.90;999.90;;;;;;;;;;5069262;28;20110;-77
2021/03/14 05:59:25;;;;;;;1999.90;999.90;;;;;;;;;;5059402;28;20095;-77
2021/03/14 06:01:52;;;;;;;1999.90;999.90;;;;;;;;;;5056294;28;20040;-77
2021/03/14 06:04:19;;;;;;;314.77;283.00;;;;;;;;;;5057795;28;20492;-77
2021/03/14 06:06:46;;;;;;;743.15;468.77;;;;;;;;;;5059824;28;20467;-77
2021/03/14 06:09:12;;;;;;;1999.90;999.90;;;;;;;;;;5060639;28;20059;-77
2021/03/14 06:11:37;;;;;;;316.38;284.20;;;;;;;;;;5057731;28;20068;-77
2021/03/14 06:14:03;;;;;;;1999.90;999.90;;;;;;;;;;5056832;28;20025;-77
2021/03/14 06:16:28;;;;;;;1999.90;999.90;;;;;;;;;;5057728;28;20504;-77
2021/03/14 06:18:54;;;;;;;1999.90;999.90;;;;;;;;;;5056528;28;20024;-77
2021/03/14 06:21:23;;;;;;;1999.90;999.90;;;;;;;;;;5059434;28;20112;-76
2021/03/14 06:23:56;;;;;;;318.50;287.00;;;;;;;;;;5061508;28;20488;-78
2021/03/14 06:26:30;;;;;;;734.78;461.00;;;;;;;;;;5058387;28;20033;-77
2021/03/14 06:28:56;;;;;;;312.52;281.23;;;;;;;;;;5062313;28;20033;-77
2021/03/14 06:31:22;;;;;;;321.17;289.35;;;;;;;;;;5058739;28;20025;-82
2021/03/14 06:33:47;;;;;;;330.60;298.02;;;;;;;;;;5065637;28;20032;-79
2021/03/14 06:36:14;;;;;;;1999.90;999.90;;;;;;;;;;5058215;28;20028;-78
2021/03/14 06:38:39;;;;;;;322.70;290.15;;;;;;;;;;5066797;28;20481;-79
2021/03/14 06:41:04;;;;;;;1999.90;999.90;;;;;;;;;;5060072;28;20123;-80
2021/03/14 06:43:30;;;;;;;1999.90;999.90;;;;;;;;;;5059416;28;20033;-79
2021/03/14 06:45:56;;;;;;;321.42;288.13;;;;;;;;;;5059397;28;20055;-80
2021/03/14 06:48:28;;;;;;;326.67;292.13;;;;;;;;;;5062630;28;20048;-79
2021/03/14 06:50:53;;;;;;;326.75;291.83;;;;;;;;;;5056614;28;20049;-78
2021/03/14 06:53:21;;;;;;;1999.90;999.90;;;;;;;;;;5064816;28;20021;-79
2021/03/14 06:55:47;;;;;;;1999.90;999.90;;;;;;;;;;5058759;28;20036;-78
2021/03/14 06:58:22;;;;;;;1999.90;999.90;;;;;;;;;;5069340;28;20021;-77
2021/03/14 07:01:07;;;;;;;1999.90;999.90;;;;;;;;;;5060997;28;20117;-76
2021/03/14 07:03:32;;;;;;;1547.43;792.72;;;;;;;;;;5069044;28;20485;-77
2021/03/14 07:06:13;;;;;;;1999.90;999.90;;;;;;;;;;5063544;28;20048;-77
2021/03/14 07:08:39;;;;;;;1999.90;999.90;;;;;;;;;;5068590;28;20397;-76
2021/03/14 07:11:04;;;;;;;1999.90;999.90;;;;;;;;;;5061828;28;20027;-77
2021/03/14 07:13:30;;;;;;;1999.90;999.90;;;;;;;;;;5066257;28;20116;-77
2021/03/14 07:15:55;;;;;;;1999.90;999.90;;;;;;;;;;5058886;28;20666;-77
2021/03/14 07:18:20;;;;;;;1999.90;999.90;;;;;;;;;;5064458;28;20028;-77
2021/03/14 07:20:46;;;;;;;1999.90;999.90;;;;;;;;;;5063449;28;20468;-77
2021/03/14 07:23:13;;;;;;;1999.90;999.90;;;;;;;;;;5064993;28;20082;-77
2021/03/14 07:25:45;;;;;;;1999.90;999.90;;;;;;;;;;5058817;28;20055;-77
2021/03/14 07:28:11;;;;;;;1999.90;999.90;;;;;;;;;;5068350;28;20035;-77
2021/03/14 07:30:37;;;;;;;1999.90;999.90;;;;;;;;;;5069663;28;20033;-76
2021/03/14 07:33:02;;;;;;;1999.90;999.90;;;;;;;;;;5067181;28;20027;-77
2021/03/14 07:35:28;;;;;;;1999.90;999.90;;;;;;;;;;5064659;28;20028;-77
2021/03/14 07:37:55;;;;;;;1999.90;999.90;;;;;;;;;;5065148;28;20112;-77
2021/03/14 07:40:22;;;;;;;1999.90;999.90;;;;;;;;;;5067330;28;20029;-77
2021/03/14 07:42:48;;;;;;;1999.90;999.90;;;;;;;;;;5062014;28;20118;-77
2021/03/14 07:45:15;;;;;;;1999.90;999.90;;;;;;;;;;5058952;28;20070;-77
2021/03/14 07:47:41;;;;;;;1999.90;999.90;;;;;;;;;;5065721;28;20028;-76
2021/03/14 07:50:08;;;;;;;1999.90;999.90;;;;;;;;;;5070972;28;20059;-76
2021/03/14 07:52:35;;;;;;;1999.90;999.90;;;;;;;;;;5061551;28;20035;-76
2021/03/14 07:55:03;;;;;;;1999.90;999.90;;;;;;;;;;5062320;28;20063;-77
2021/03/14 07:57:29;;;;;;;1999.90;999.90;;;;;;;;;;5069867;28;20017;-75
2021/03/14 07:59:55;;;;;;;1097.85;588.63;;;;;;;;;;5058737;28;20542;-75
2021/03/14 08:02:27;;;;;;;313.15;283.30;;;;;;;;;;5061475;28;20144;-75
2021/03/14 08:04:53;;;;;;;270.38;244.27;;;;;;;;;;5068800;28;20052;-76
2021/03/14 08:07:34;;;;;;;227.40;205.80;;;;;;;;;;5064227;28;20029;-76
2021/03/14 08:10:00;;;;;;;303.55;274.33;;;;;;;;;;5059157;28;20033;-76
2021/03/14 08:12:35;;;;;;;318.70;287.75;;;;;;;;;;5063979;28;20027;-77
2021/03/14 08:15:01;;;;;;;;;;;;;;;;;;5060781;28;20037;-76
2021/03/14 08:17:36;;;;;;;310.47;280.67;;;;;;;;;;5067020;28;19904;-76
2021/03/14 08:20:03;;;;;;;325.08;293.77;;;;;;;;;;5064562;28;20506;-75
2021/03/14 08:22:37;;;;;;;320.23;290.08;;;;;;;;;;5066006;28;20171;-76
2021/03/14 08:25:22;;;;;;;338.75;307.65;;;;;;;;;;5062472;28;20027;-75
2021/03/14 08:27:49;;;;;;;303.42;274.25;;;;;;;;;;5062677;28;20085;-75
2021/03/14 08:30:29;;;;;;;297.17;269.15;;;;;;;;;;5070715;28;20385;-76
2021/03/14 08:33:24;;;;;;;298.35;269.77;;;;;;;;;;5063727;28;20037;-76
2021/03/14 08:35:57;;;;;;;313.52;284.33;;;;;;;;;;5057767;28;20033;-75
2021/03/14 08:38:41;;;;;;;308.40;279.63;;;;;;;;;;5059975;28;20024;-75
2021/03/14 08:41:25;;;;;;;294.10;266.08;;;;;;;;;;5065106;28;20071;-76
2021/03/14 08:43:56;;;;;;;315.08;284.77;;;;;;;;;;5067055;28;20107;-76
2021/03/14 08:46:43;;;;;;;293.58;264.95;;;;;;;;;;5075249;28;20021;-77
2021/03/14 08:49:09;;;;;;;294.58;265.92;;;;;;;;;;5061867;28;20028;-79
2021/03/14 08:51:35;;;;;;;289.02;260.63;;;;;;;;;;5056573;28;20035;-79
2021/03/14 08:54:00;;;;;;;294.80;265.90;;;;;;;;;;5062231;28;20149;-74
2021/03/14 08:56:34;;;;;;;288.05;259.80;;;;;;;;;;5063111;28;20506;-74
2021/03/14 08:59:06;;;;;;;288.30;260.55;;;;;;;;;;5062854;28;20021;-77
2021/03/14 09:01:34;;;;;;;276.35;250.93;;;;;;;;;;5054883;28;20037;-78
2021/03/14 09:04:10;;;;;;;276.83;252.15;;;;;;;;;;5066605;28;20116;-77
2021/03/14 09:06:36;;;;;;;269.20;244.75;;;;;;;;;;5063738;28;20087;-77
2021/03/14 09:09:11;;;;;;;251.40;228.75;;;;;;;;;;5057660;28;20027;-77
2021/03/14 09:11:52;;;;;;;272.25;248.18;;;;;;;;;;5055071;28;20090;-77
2021/03/14 09:14:26;;;;;;;271.55;248.43;;;;;;;;;;5059282;28;20025;-78
2021/03/14 09:16:53;;;;;;;223.55;203.93;;;;;;;;;;5065650;28;20060;-78
2021/03/14 09:19:23;;;;;;;234.40;213.15;;;;;;;;;;5062413;28;20552;-75
2021/03/14 09:21:49;;;;;;;255.57;233.40;;;;;;;;;;5064072;28;20048;-73
2021/03/14 09:24:35;;;;;;;264.75;241.63;;;;;;;;;;5060055;28;20025;-73
2021/03/14 09:27:02;;;;;;;;;;;;;;;;;;5064025;28;20483;-76
2021/03/14 09:29:38;;;;;;;229.63;209.07;;;;;;;;;;5068012;28;19917;-76
2021/03/14 09:32:12;;;;;;;226.57;206.32;;;;;;;;;;5063319;28;20374;-76
2021/03/14 09:34:38;;;;;;;245.27;224.30;;;;;;;;;;5064791;28;20119;-76
2021/03/14 09:37:04;;;;;;;209.45;190.80;;;;;;;;;;5059613;28;20123;-77
2021/03/14 09:39:38;;;;;;;209.95;191.38;;;;;;;;;;5061540;28;20025;-76
2021/03/14 09:42:19;;;;;;;222.63;204.07;;;;;;;;;;5055205;28;20051;-76
2021/03/14 09:45:03;;;;;;;208.55;190.07;;;;;;;;;;5062521;28;20052;-77
2021/03/14 09:47:28;;;;;;;206.68;188.73;;;;;;;;;;5052245;28;20029;-77
2021/03/14 09:50:04;;;;;;;207.15;189.52;;;;;;;;;;5058116;28;20017;-76
2021/03/14 09:52:33;;;;;;;197.70;180.82;;;;;;;;;;5061909;28;20021;-76
2021/03/14 09:54:58;;;;;;;204.15;185.75;;;;;;;;;;5062137;28;20023;-76
2021/03/14 09:57:24;;;;;;;224.57;205.02;;;;;;;;;;5053972;28;20065;-76
2021/03/14 10:00:12;;;;;;;198.65;181.75;;;;;;;;;;5064829;28;20106;-75
2021/03/14 10:02:41;;;;;;;177.20;161.75;;;;;;;;;;5060022;28;20132;-76
2021/03/14 10:05:25;;;;;;;179.60;164.23;;;;;;;;;;5060727;28;20048;-75
2021/03/14 10:07:53;;;;;;;177.98;162.52;;;;;;;;;;5062167;28;20032;-76
2021/03/14 10:10:19;;;;;;;180.93;165.68;;;;;;;;;;5066944;28;20035;-75
2021/03/14 10:12:58;;;;;;;164.85;150.98;;;;;;;;;;5066938;28;20028;-75
2021/03/14 10:15:25;;;;;;;172.95;158.60;;;;;;;;;;5063279;28;20061;-75
2021/03/14 10:17:57;;;;;;;167.13;152.45;;;;;;;;;;5060266;28;20627;-75
2021/03/14 10:20:22;;;;;;;174.38;159.13;;;;;;;;;;5062829;28;20107;-75
2021/03/14 10:23:01;;;;;;;173.63;158.50;;;;;;;;;;5060637;28;20140;-74
2021/03/14 10:25:34;;;;;;;173.57;157.88;;;;;;;;;;5065733;28;20024;-77
2021/03/14 10:28:12;;;;;;;179.60;163.82;;;;;;;;;;5062221;28;20175;-76
2021/03/14 10:30:59;;;;;;;179.88;163.52;;;;;;;;;;5057855;28;20036;-75
2021/03/14 10:33:30;;;;;;;248.80;227.07;;;;;;;;;;5042532;28;20037;-76
2021/03/14 10:36:05;;;;;;;185.07;169.05;;;;;;;;;;5059490;28;20037;-76
2021/03/14 10:38:41;;;;;;;156.45;143.48;;;;;;;;;;5060960;28;20032;-76
2021/03/14 10:41:20;;;;;;;158.68;144.85;;;;;;;;;;5059636;28;20412;-77
2021/03/14 10:43:58;;;;;;;179.45;163.55;;;;;;;;;;5062112;28;20964;-77
2021/03/14 10:46:33;;;;;;;171.85;156.70;;;;;;;;;;5063083;28;20060;-78
2021/03/14 10:49:05;;;;;;;174.73;159.10;;;;;;;;;;5069019;28;20021;-75
2021/03/14 10:51:32;;;;;;;167.73;152.38;;;;;;;;;;5063963;28;20033;-75
2021/03/14 10:54:04;;;;;;;201.90;184.05;;;;;;;;;;5056019;28;20025;-75
2021/03/14 10:56:34;;;;;;;163.55;148.27;;;;;;;;;;5062674;28;20047;-78
2021/03/14 10:59:01;;;;;;;158.75;145.05;;;;;;;;;;5062074;28;20020;-80
2021/03/14 11:01:53;;;;;;;165.00;150.13;;;;;;;;;;5064289;28;20450;-78
2021/03/14 11:04:25;;;;;;;165.05;149.85;;;;;;;;;;5057018;28;20017;-79
2021/03/14 11:06:57;;;;;;;161.98;147.45;;;;;;;;;;5063912;28;20045;-77
2021/03/14 11:09:26;;;;;;;203.13;184.95;;;;;;;;;;5064572;28;20135;-78
2021/03/14 11:11:52;;;;;;;167.32;152.35;;;;;;;;;;5060183;28;20127;-77
2021/03/14 11:14:26;;;;;;;167.02;151.43;;;;;;;;;;5052390;28;20025;-77
2021/03/14 11:17:09;;;;;;;153.43;139.27;;;;;;;;;;5060254;28;20392;-77
2021/03/14 11:19:40;;;;;;;150.23;137.52;;;;;;;;;;5058205;28;20021;-77
2021/03/14 11:22:06;;;;;;;148.75;135.63;;;;;;;;;;5068825;28;20032;-75
2021/03/14 11:24:39;;;;;;;142.52;129.68;;;;;;;;;;5064699;28;20031;-78
2021/03/14 11:27:06;;;;;;;143.07;131.05;;;;;;;;;;5062813;28;20107;-79
2021/03/14 11:29:32;;;;;;;140.55;128.60;;;;;;;;;;5063220;28;20021;-77
2021/03/14 11:32:10;;;;;;;;;;;;;;;;;;5067731;28;20493;-78
2021/03/14 11:34:36;;;;;;;142.27;130.55;;;;;;;;;;5064282;28;19912;-78
2021/03/14 11:37:20;;;;;;;152.70;138.85;;;;;;;;;;5065614;28;20071;-79
2021/03/14 11:40:08;;;;;;;141.55;129.30;;;;;;;;;;5062056;28;20025;-78
2021/03/14 11:42:42;;;;;;;141.93;129.52;;;;;;;;;;5060412;28;20033;-75
2021/03/14 11:45:17;;;;;;;143.35;130.68;;;;;;;;;;5066987;28;20024;-78
2021/03/14 11:47:42;;;;;;;134.27;122.55;;;;;;;;;;5063417;28;20431;-78
2021/03/14 11:50:26;;;;;;;133.70;122.93;;;;;;;;;;5059416;28;20082;-79
2021/03/14 11:52:52;;;;;;;119.55;110.40;;;;;;;;;;5068253;28;20142;-76
2021/03/14 11:55:25;;;;;;;119.82;111.13;;;;;;;;;;5057471;28;20023;-77
2021/03/14 11:57:51;;;;;;;107.43;99.40;;;;;;;;;;5063259;28;20036;-73
2021/03/14 12:00:17;;;;;;;99.47;92.47;;;;;;;;;;5069238;28;20017;-73
2021/03/14 12:02:46;;;;;;;97.35;90.35;;;;;;;;;;5061903;28;20036;-74
2021/03/14 12:05:37;;;;;;;88.95;82.05;;;;;;;;;;5059394;28;20045;-73
2021/03/14 12:08:17;;;;;;;81.10;74.57;;;;;;;;;;5058381;28;20025;-73
2021/03/14 12:10:43;;;;;;;93.20;86.30;;;;;;;;;;5066985;28;20408;-73
2021/03/14 12:13:09;;;;;;;93.63;86.68;;;;;;;;;;5065142;28;20428;-73
2021/03/14 12:15:35;;;;;;;86.50;80.10;;;;;;;;;;5061195;28;20032;-72
2021/03/14 12:18:01;;;;;;;76.22;70.40;;;;;;;;;;5066691;28;20035;-76
2021/03/14 12:20:48;;;;;;;77.28;71.32;;;;;;;;;;5062209;28;20040;-74
2021/03/14 12:23:21;;;;;;;60.85;56.28;;;;;;;;;;5061259;28;20040;-74
2021/03/14 12:25:55;;;;;;;72.15;66.05;;;;;;;;;;5070165;28;20033;-74
2021/03/14 12:28:30;;;;;;;74.45;68.28;;;;;;;;;;5069350;28;20032;-73
2021/03/14 12:30:55;;;;;;;71.00;65.78;;;;;;;;;;5069414;28;20024;-74
2021/03/14 12:33:21;;;;;;;68.57;63.55;;;;;;;;;;5063263;28;20721;-72
2021/03/14 12:35:46;;;;;;;71.47;66.40;;;;;;;;;;5067962;28;20117;-72
2021/03/14 12:38:22;;;;;;;61.28;57.03;;;;;;;;;;5066574;28;20024;-72
2021/03/14 12:40:48;;;;;;;64.55;59.83;;;;;;;;;;5061620;28;20036;-72
2021/03/14 12:43:14;;;;;;;68.07;63.35;;;;;;;;;;5063415;28;20043;-72
2021/03/14 12:45:47;;;;;;;66.22;61.03;;;;;;;;;;5061546;28;20120;-76
2021/03/14 12:48:12;;;;;;;70.25;64.50;;;;;;;;;;5064978;28;20036;-72
2021/03/14 12:50:44;;;;;;;79.35;73.10;;;;;;;;;;5059246;28;20032;-73
2021/03/14 12:53:10;;;;;;;76.80;71.03;;;;;;;;;;5063247;28;20135;-76
2021/03/14 12:55:35;;;;;;;95.60;88.18;;;;;;;;;;5063310;28;20886;-76
2021/03/14 12:58:01;;;;;;;74.88;69.07;;;;;;;;;;5068513;28;20547;-76
2021/03/14 13:00:36;;;;;;;80.60;74.20;;;;;;;;;;5063274;28;20013;-76
2021/03/14 13:03:03;;;;;;;85.55;77.82;;;;;;;;;;5066951;28;20043;-80
2021/03/14 13:05:28;;;;;;;79.63;73.55;;;;;;;;;;5059708;28;20261;-80
2021/03/14 13:07:54;;;;;;;72.22;66.85;;;;;;;;;;5059470;28;20115;-78
2021/03/14 13:10:20;;;;;;;74.13;68.60;;;;;;;;;;5064629;28;20019;-78
2021/03/14 13:12:46;;;;;;;83.90;77.10;;;;;;;;;;5059934;28;20023;-78
2021/03/14 13:15:11;;;;;;;79.40;73.60;;;;;;;;;;5063964;28;20431;-78
2021/03/14 13:17:37;;;;;;;73.10;67.47;;;;;;;;;;5056364;28;20063;-79
2021/03/14 13:20:03;;;;;;;67.43;61.78;;;;;;;;;;5063444;28;20760;-78
2021/03/14 13:22:29;;;;;;;76.70;70.55;;;;;;;;;;5059478;28;20044;-78
2021/03/14 13:24:54;;;;;;;76.50;70.47;;;;;;;;;;5064918;28;20036;-78
2021/03/14 13:27:20;;;;;;;71.93;66.18;;;;;;;;;;5066954;28;20052;-78
2021/03/14 13:29:46;;;;;;;86.93;79.88;;;;;;;;;;5060341;28;20067;-78
2021/03/14 13:32:12;;;;;;;75.20;68.35;;;;;;;;;;5063885;28;20127;-78
2021/03/14 13:34:38;;;;;;;88.05;81.22;;;;;;;;;;5059925;28;20076;-79
2021/03/14 13:37:03;;;;;;;84.35;77.93;;;;;;;;;;5064690;28;20036;-77
2021/03/14 13:39:29;;;;;;;82.50;75.68;;;;;;;;;;5065893;28;20024;-78
2021/03/14 13:41:54;;;;;;;91.18;83.93;;;;;;;;;;5061189;28;20495;-77
2021/03/14 13:44:20;;;;;;;74.30;68.28;;;;;;;;;;5057745;28;20104;-78
2021/03/14 13:46:45;;;;;;;85.25;79.00;;;;;;;;;;5066067;28;20063;-77
2021/03/14 13:49:11;;;;;;;81.95;75.50;;;;;;;;;;5055153;28;20032;-77
2021/03/14 13:51:36;;;;;;;94.90;87.25;;;;;;;;;;5060126;28;20501;-77
2021/03/14 13:54:02;;;;;;;70.47;64.25;;;;;;;;;;5065039;28;20381;-76
2021/03/14 13:56:27;;;;;;;67.68;62.40;;;;;;;;;;5058322;28;20055;-76
2021/03/14 13:58:52;;;;;;;64.95;59.90;;;;;;;;;;5058475;28;20028;-75